首页
METAR-TAF:

METAR-TAF

机场 :

大阪國際機場

大阪, 日本

纬度: 34-47N, 经度: 135-27E, 海拔: 12米

当前天气观测

该预报发布于31分钟前的09:00 UTC
风速7节,风向,在西转西北之间变化
温度 14°C
湿度 55%
气压 1018 hPa
能见度10公里或以上
少量云层高于2500英尺
多云层高于3500英尺

METAR: RJOO 140900Z 35007KT 300V010 9999 FEW025 BKN035 14/05 Q1018 RMK 1CU025 5CU035 A3008

时间: 18:31 (09:31 UTC)

预报

该预报发布于4小时和23分钟前的05:08 UTC
预报有效从14日的 06点(UTC)到 15日的 12点(UTC)
风速13节,风向北转西北
能见度10公里或以上
少量云层高于2500英尺
多云层高于4500英尺

TAF: RJOO 140508Z 1406/1512 34013KT 9999 FEW025 BKN045

超过4000个机场的气象观测和天气预报(METAR&TAF报告)。

可查询的气象台以黄色和红色小点在地图上表示。

将鼠标移到小点上方,可查看气象台名称。

然后点击查看天气观测和预报。

如需切换地图:点击带黑十字的绿色按钮放大地图;点击带横线的绿色按钮缩小地图;或者点击绿色箭头查看邻近地区的地图。


METAR-TAF: